TimeCST,TemperatureF,Dew PointF,Humidity,Sea Level PressureIn,VisibilityMPH,Wind Direction,Wind SpeedMPH,Gust SpeedMPH,PrecipitationIn,Events,Conditions,WindDirDegrees,DateUTC
12:04 AM,53.6,50.0,88,29.53,2.5,WNW,20.7,34.5,0.08,Rain,Heavy Rain,300,2013-01-30 06:04:00
12:12 AM,53.6,50.0,88,29.52,1.8,NNW,15.0,28.8,0.22,Rain,Heavy Rain,340,2013-01-30 06:12:00
12:15 AM,53.6,50.0,88,29.53,2.0,NW,16.1,28.8,0.28,Rain,Heavy Rain,320,2013-01-30 06:15:00
12:22 AM,53.6,50.0,88,29.54,3.0,NW,13.8,27.6,0.32,Rain,Heavy Rain,310,2013-01-30 06:22:00
12:54 AM,54.0,50.0,86,29.52,4.0,NNW,8.1,17.3,0.49,Rain-Thunderstorm,Heavy Rain,340,2013-01-30 06:54:00
1:03 AM,53.6,50.0,88,29.53,2.5,WNW,5.8,-,0.05,Rain,Heavy Rain,300,2013-01-30 07:03:00
1:20 AM,53.6,50.0,88,29.50,3.0,North,8.1,-,0.15,Rain,Heavy Rain,10,2013-01-30 07:20:00
1:54 AM,53.1,50.0,89,29.49,4.0,NNW,6.9,-,0.35,Rain,Heavy Rain,340,2013-01-30 07:54:00
2:18 AM,53.6,50.0,88,29.51,3.0,NNW,5.8,-,0.14,Rain-Thunderstorm,Heavy Rain,340,2013-01-30 08:18:00
2:39 AM,53.6,50.0,88,29.53,4.0,WNW,6.9,-,0.25,Rain,Heavy Rain,300,2013-01-30 08:39:00
2:54 AM,53.1,50.0,89,29.52,4.0,Calm,Calm,-,0.31,Rain,Rain,0,2013-01-30 08:54:00
3:54 AM,52.0,50.0,93,29.51,-9999.0,North,-9999.0,-,0.07,,Unknown,0,2013-01-30 09:54:00
4:54 AM,-9999,-9999,N/A,29.48,-9999.0,North,-9999.0,-,N/A,,Unknown,0,2013-01-30 10:54:00
5:54 AM,-9999,-9999,N/A,29.43,-9999.0,North,-9999.0,-,N/A,,Unknown,0,2013-01-30 11:54:00
6:54 AM,53.6,-9999,N/A,29.45,-9999.0,North,-9999.0,-,N/A,,Unknown,0,2013-01-30 12:54:00
7:54 AM,53.6,-9999,N/A,29.47,-9999.0,North,-9999.0,-,N/A,,Unknown,0,2013-01-30 13:54:00
8:54 AM,53.6,-9999,N/A,29.46,-9999.0,North,-9999.0,-,N/A,,Unknown,0,2013-01-30 14:54:00
9:33 AM,53.6,50.0,88,29.44,10.0,SSW,11.5,23.0,N/A,,Overcast,200,2013-01-30 15:33:00
9:41 AM,53.6,50.0,88,29.44,10.0,SSW,16.1,23.0,N/A,,Overcast,210,2013-01-30 15:41:00
9:54 AM,55.0,50.0,83,29.43,10.0,SSW,18.4,23.0,N/A,,Overcast,210,2013-01-30 15:54:00
10:01 AM,55.4,50.0,82,29.45,10.0,SSW,15.0,24.2,N/A,,Overcast,210,2013-01-30 16:01:00
10:54 AM,55.9,50.0,80,29.44,10.0,SSW,17.3,25.3,N/A,,Overcast,210,2013-01-30 16:54:00
11:54 AM,57.0,48.0,72,29.40,10.0,SW,18.4,25.3,N/A,,Mostly Cloudy,220,2013-01-30 17:54:00
12:12 PM,57.2,48.2,72,29.38,10.0,SW,17.3,21.9,N/A,,Mostly Cloudy,230,2013-01-30 18:12:00
12:54 PM,55.9,46.9,72,29.37,10.0,SW,15.0,26.5,0.00,Rain,Light Rain,220,2013-01-30 18:54:00
1:25 PM,50.0,44.6,82,29.41,2.0,WSW,21.9,29.9,0.01,Rain,Rain,250,2013-01-30 19:25:00
1:32 PM,46.4,42.8,87,29.44,2.0,WNW,23.0,32.2,0.02,Rain,Rain,290,2013-01-30 19:32:00
1:54 PM,46.0,41.0,83,29.42,4.0,WNW,18.4,24.2,0.04,Rain,Rain,300,2013-01-30 19:54:00
2:05 PM,46.4,41.0,81,29.43,4.0,WNW,18.4,29.9,0.02,Rain,Light Rain,290,2013-01-30 20:05:00
2:31 PM,44.6,39.2,81,29.45,2.0,West,17.3,29.9,0.03,Rain,Light Rain,280,2013-01-30 20:31:00
2:42 PM,44.6,39.2,81,29.46,6.0,West,18.4,28.8,0.03,Rain,Light Rain,260,2013-01-30 20:42:00
2:49 PM,44.6,39.2,81,29.46,10.0,West,16.1,24.2,0.03,Rain,Light Rain,280,2013-01-30 20:49:00
2:54 PM,44.1,37.9,79,29.47,8.0,West,15.0,24.2,0.03,Rain,Light Rain,280,2013-01-30 20:54:00
3:25 PM,42.8,37.4,81,29.48,6.0,WNW,12.7,27.6,0.01,Rain,Light Rain,290,2013-01-30 21:25:00
3:37 PM,42.8,37.4,81,29.49,6.0,West,13.8,-,0.02,Rain,Light Rain,270,2013-01-30 21:37:00
3:54 PM,42.1,36.0,79,29.50,10.0,West,24.2,33.4,0.02,Rain,Light Rain,270,2013-01-30 21:54:00
4:01 PM,42.8,35.6,76,29.51,10.0,West,19.6,33.4,0.00,Rain,Light Rain,270,2013-01-30 22:01:00
4:34 PM,39.2,33.8,81,29.54,8.0,West,17.3,32.2,0.00,Rain,Light Rain,280,2013-01-30 22:34:00
4:54 PM,37.9,30.0,73,29.57,10.0,West,24.2,32.2,0.00,,Overcast,280,2013-01-30 22:54:00
5:06 PM,37.4,28.4,70,29.56,10.0,WNW,24.2,35.7,N/A,,Overcast,290,2013-01-30 23:06:00
5:20 PM,37.4,28.4,70,29.59,10.0,West,20.7,33.4,N/A,,Overcast,280,2013-01-30 23:20:00
5:27 PM,37.4,28.4,70,29.58,10.0,WNW,18.4,33.4,N/A,,Overcast,290,2013-01-30 23:27:00
5:54 PM,37.0,27.0,67,29.60,10.0,WNW,18.4,29.9,N/A,,Overcast,290,2013-01-30 23:54:00
6:26 PM,35.6,26.6,70,29.64,10.0,WNW,25.3,31.1,N/A,,Overcast,290,2013-01-31 00:26:00
6:54 PM,35.1,24.1,64,29.66,10.0,West,18.4,39.1,N/A,,Overcast,280,2013-01-31 00:54:00
7:54 PM,34.0,24.1,67,29.71,10.0,West,18.4,33.4,N/A,,Overcast,280,2013-01-31 01:54:00
8:11 PM,33.8,24.8,70,29.72,10.0,West,28.8,39.1,N/A,,Overcast,280,2013-01-31 02:11:00
8:54 PM,33.1,23.0,66,29.76,10.0,West,25.3,36.8,N/A,,Overcast,280,2013-01-31 02:54:00
9:02 PM,33.8,23.0,65,29.76,10.0,West,21.9,36.8,N/A,,Overcast,280,2013-01-31 03:02:00
9:54 PM,32.0,21.9,66,29.80,10.0,West,21.9,32.2,0.00,,Overcast,280,2013-01-31 03:54:00
10:54 PM,30.9,19.9,64,29.85,9.0,West,19.6,31.1,0.00,,Overcast,280,2013-01-31 04:54:00
11:54 PM,30.9,19.0,61,29.88,10.0,West,15.0,20.7,N/A,,Overcast,280,2013-01-31 05:54:00